Portada
METAR-TAF:

METAR-TAF

Aeroports :

Aeroport de Barcelona-El Prat

Barcelona, Espanya

latitud: 41-17N, longitud: 002-04E, altitud: 4 m

Observació

L'informe es va fer fa 38 minuts, a les 12:30 UTC
Vent 11 kt del Est, variant entre Est/Nord-Est i Sud-Est
Temperatura 23°C
Humitat 69%
Pressió 1014 hPa
Visibilitat 10 km o més
Escasses núvols a una alçada de 1500 ft

METAR: LEBL 201230Z 09011KT 070V130 9999 FEW015 23/17 Q1014 NOSIG

Hora: 15:08 (13:08 UTC)

Pronòstic

L'informe es va fer fa 2 hores i 8 minuts, a les 11:00 UTC
Pronòstic vàlid del 20 a les 12 UTC al 21 a les 12 UTC
Vent 10 kt del Est/Nord-Est
Visibilitat 10 km o més
Escasses núvols a una alçada de 1500 ft
Evolucionant progressivament
l' 20 a les 21 UTC al 20 a les 23 UTC
Vent 3 kt amb direcció variable
Evolucionant progressivament
l' 21 a les 08 UTC al 21 a les 10 UTC
Vent 10 kt del Sud/Sud-Oest

TAF: LEBL 201100Z 2012/2112 07010KT 9999 FEW015 TX25/2012Z TN19/2106Z BECMG 2021/2023 VRB03KT BECMG 2108/2110 20010KT

Observacions i pronòstics meteorològics de més de 4000 aeroports (METAR i TAF).

Les estacions disponibles són els punts grocs i vermells al mapa.

Posi el ratolí al punt desitjat per veure el nom de l'estació.

Feu clic per veure les observacions i els pronòstics meteorològics.

Per canviar el mapa: feu clic els botons verds amb una creu de color negre per apropar; al botó verd amb un guió per allunyar la imatge; o en les fletxes verdes per a mapes adjacents.


METAR-TAF: